Time;durP1;ratioP1;P1;durP2;ratioP2;P2;SDS_P1;SDS_P2;PMS_P1;PMS_P2;Temp;Humidity;BMP_temperature;BMP_pressure;BME280_temperature;BME280_humidity;BME280_pressure;Samples;Min_cycle;Max_cycle;Signal;HPM_P1;HPM_P2
2024/01/06 00:01:01;;;;;;;6.13;3.70;;;-1.30;99.90;;;;;;4985305;28;20029;-55
2024/01/06 00:03:26;;;;;;;4.88;3.72;;;-1.30;99.90;;;;;;4997600;28;20592;-49
2024/01/06 00:05:52;;;;;;;5.30;4.35;;;-1.30;99.90;;;;;;4972071;28;20460;-52
2024/01/06 00:08:17;;;;;;;5.53;3.50;;;-1.30;99.90;;;;;;4967375;28;20702;-54
2024/01/06 00:10:43;;;;;;;5.82;4.28;;;-1.30;99.90;;;;;;4974704;28;20033;-52
2024/01/06 00:13:09;;;;;;;5.22;3.83;;;-1.30;99.90;;;;;;4960451;28;20037;-50
2024/01/06 00:15:35;;;;;;;4.70;3.35;;;-1.30;99.90;;;;;;4973861;28;20022;-60
2024/01/06 00:18:00;;;;;;;5.22;3.85;;;-1.30;99.90;;;;;;4966765;28;20444;-54
2024/01/06 00:20:26;;;;;;;5.40;3.75;;;-1.30;99.90;;;;;;4930420;28;20115;-55
2024/01/06 00:22:51;;;;;;;6.70;4.22;;;-1.30;99.90;;;;;;4972229;28;20038;-52
2024/01/06 00:25:17;;;;;;;7.00;4.07;;;-1.30;99.90;;;;;;4979830;28;20037;-50
2024/01/06 00:27:42;;;;;;;5.70;4.22;;;-1.30;99.90;;;;;;4948161;28;20041;-53
2024/01/06 00:30:08;;;;;;;8.30;4.35;;;-1.30;99.90;;;;;;4969797;28;20040;-56
2024/01/06 00:32:34;;;;;;;6.15;4.05;;;-1.30;99.90;;;;;;4957574;28;20033;-53
2024/01/06 00:34:59;;;;;;;7.03;4.28;;;-1.30;99.90;;;;;;4960290;28;20033;-60
2024/01/06 00:37:25;;;;;;;4.55;3.53;;;-1.30;99.90;;;;;;4969914;28;20539;-55
2024/01/06 00:39:50;;;;;;;5.22;3.63;;;-1.30;99.90;;;;;;4952350;28;20025;-52
2024/01/06 00:42:16;;;;;;;5.18;4.47;;;-1.30;99.90;;;;;;4969390;28;20034;-51
2024/01/06 00:44:41;;;;;;;5.10;3.50;;;-1.30;99.90;;;;;;4938323;28;20109;-54
2024/01/06 00:47:07;;;;;;;4.78;3.95;;;-1.30;99.90;;;;;;4927834;28;20132;-53
2024/01/06 00:49:32;;;;;;;6.03;4.68;;;-1.30;99.90;;;;;;4960741;28;20057;-54
2024/01/06 00:51:58;;;;;;;5.40;4.05;;;-1.40;99.90;;;;;;4992595;28;20089;-56
2024/01/06 00:54:24;;;;;;;6.63;4.15;;;-1.40;99.90;;;;;;4980175;28;20029;-56
2024/01/06 00:56:49;;;;;;;6.05;4.30;;;-1.40;99.90;;;;;;4940938;28;20474;-56
2024/01/06 00:59:15;;;;;;;6.38;4.30;;;-1.30;99.90;;;;;;4961598;28;20034;-56
2024/01/06 01:01:40;;;;;;;4.90;3.72;;;-1.30;99.90;;;;;;4958875;28;21864;-55
2024/01/06 01:04:06;;;;;;;8.48;4.28;;;-1.40;99.90;;;;;;4986663;28;20087;-56
2024/01/06 01:06:31;;;;;;;5.05;3.92;;;-1.40;99.90;;;;;;4974681;28;20049;-52
2024/01/06 01:08:57;;;;;;;5.80;4.20;;;-1.40;99.90;;;;;;4936457;28;20030;-54
2024/01/06 01:11:22;;;;;;;5.18;4.25;;;-1.40;99.90;;;;;;4935590;28;21233;-55
2024/01/06 01:13:48;;;;;;;3.92;3.30;;;-1.40;99.90;;;;;;4952499;28;20598;-55
2024/01/06 01:16:13;;;;;;;4.95;3.60;;;-1.40;99.90;;;;;;4996006;28;20548;-51
2024/01/06 01:18:39;;;;;;;6.35;3.92;;;-1.40;99.90;;;;;;4957412;28;20029;-61
2024/01/06 01:21:04;;;;;;;4.82;4.15;;;-1.40;99.90;;;;;;4956983;28;20379;-50
2024/01/06 01:23:30;;;;;;;5.13;3.90;;;-1.50;99.90;;;;;;4933497;28;20033;-54
2024/01/06 01:25:56;;;;;;;6.03;4.28;;;-1.50;99.90;;;;;;4951274;28;20033;-53
2024/01/06 01:28:22;;;;;;;5.38;4.18;;;-1.40;99.90;;;;;;4962988;28;20018;-59
2024/01/06 01:30:47;;;;;;;6.45;3.97;;;-1.40;99.90;;;;;;4948679;28;20052;-51
2024/01/06 01:33:13;;;;;;;6.28;4.72;;;-1.40;99.90;;;;;;4940861;28;20036;-53
2024/01/06 01:35:38;;;;;;;7.03;4.30;;;-1.40;99.90;;;;;;4939404;28;20030;-52
2024/01/06 01:38:04;;;;;;;5.75;4.30;;;-1.40;99.90;;;;;;4948165;28;20101;-60
2024/01/06 01:40:29;;;;;;;5.35;4.32;;;-1.40;99.90;;;;;;4949578;28;20493;-55
2024/01/06 01:42:55;;;;;;;7.45;4.85;;;-1.40;99.90;;;;;;4988972;28;21374;-52
2024/01/06 01:45:20;;;;;;;7.97;4.07;;;-1.40;99.90;;;;;;4971766;28;20033;-52
2024/01/06 01:47:46;;;;;;;7.30;4.75;;;-1.50;99.90;;;;;;4929609;28;20180;-51
2024/01/06 01:50:13;;;;;;;6.95;4.68;;;-1.40;99.90;;;;;;4916290;28;20091;-55
2024/01/06 01:52:41;;;;;;;7.03;5.15;;;-1.40;99.90;;;;;;4941642;28;21413;-56
2024/01/06 01:55:07;;;;;;;6.30;4.63;;;-1.40;99.90;;;;;;4971003;28;20029;-55
2024/01/06 01:57:32;;;;;;;6.72;5.28;;;-1.40;99.90;;;;;;4973113;28;20036;-50
2024/01/06 02:00:00;;;;;;;7.22;4.70;;;-1.40;99.90;;;;;;4932044;28;20413;-52
2024/01/06 02:02:28;;;;;;;7.53;5.38;;;-1.40;99.90;;;;;;4950243;28;20040;-51
2024/01/06 02:04:54;;;;;;;6.43;4.90;;;-1.40;99.90;;;;;;4945690;28;20034;-50
2024/01/06 02:07:20;;;;;;;7.78;4.72;;;-1.40;99.90;;;;;;4965630;28;20031;-60
2024/01/06 02:09:46;;;;;;;6.20;4.90;;;-1.40;99.90;;;;;;4911335;28;20029;-54
2024/01/06 02:12:11;;;;;;;6.38;4.68;;;-1.40;99.90;;;;;;4966043;28;20550;-56
2024/01/06 02:14:37;;;;;;;8.57;5.55;;;-1.40;99.90;;;;;;4937121;28;20021;-55
2024/01/06 02:17:02;;;;;;;8.05;4.65;;;-1.40;99.90;;;;;;4953613;28;20021;-60
2024/01/06 02:19:28;;;;;;;7.72;5.40;;;-1.40;99.90;;;;;;4958253;28;20030;-61
2024/01/06 02:21:54;;;;;;;7.28;5.55;;;-1.40;99.90;;;;;;4967329;28;21307;-52
2024/01/06 02:24:20;;;;;;;5.95;4.95;;;-1.40;99.90;;;;;;4970804;28;20044;-51
2024/01/06 02:26:45;;;;;;;9.07;6.43;;;-1.40;99.90;;;;;;4926993;28;20037;-50
2024/01/06 02:29:11;;;;;;;8.30;6.10;;;-1.40;99.90;;;;;;4930851;28;20037;-52
2024/01/06 02:31:36;;;;;;;8.00;6.50;;;-1.40;99.90;;;;;;4939858;28;20461;-55
2024/01/06 02:34:02;;;;;;;8.93;5.97;;;-1.40;99.90;;;;;;4974332;28;20026;-55
2024/01/06 02:36:27;;;;;;;11.35;6.30;;;-1.40;99.90;;;;;;4974178;28;20034;-57
2024/01/06 02:38:53;;;;;;;7.70;6.00;;;-1.40;99.90;;;;;;4944481;28;20043;-53
2024/01/06 02:41:18;;;;;;;8.48;6.63;;;-1.40;99.90;;;;;;4941828;28;20038;-56
2024/01/06 02:43:44;;;;;;;8.38;6.22;;;-1.40;99.90;;;;;;4928169;28;21226;-55
2024/01/06 02:46:09;;;;;;;9.65;5.93;;;-1.40;99.90;;;;;;4942955;28;20053;-57
2024/01/06 02:48:35;;;;;;;8.43;5.97;;;-1.30;99.90;;;;;;4964362;28;20049;-60
2024/01/06 02:51:01;;;;;;;8.73;6.07;;;-1.40;99.90;;;;;;4907912;28;20113;-56
2024/01/06 02:53:26;;;;;;;9.30;6.45;;;-1.40;99.90;;;;;;4915827;28;20173;-56
2024/01/06 02:55:52;;;;;;;11.73;6.78;;;-1.40;99.90;;;;;;4929167;28;20022;-54
2024/01/06 02:58:17;;;;;;;7.80;6.05;;;-1.40;99.90;;;;;;4960223;28;20083;-53
2024/01/06 03:00:43;;;;;;;9.90;6.78;;;-1.40;99.90;;;;;;4911650;28;20021;-60
2024/01/06 03:03:08;;;;;;;7.82;6.63;;;-1.40;99.90;;;;;;4961374;28;20108;-55
2024/01/06 03:05:34;;;;;;;10.60;5.95;;;-1.30;99.90;;;;;;4919504;28;20036;-54
2024/01/06 03:07:59;;;;;;;7.85;5.82;;;-1.30;99.90;;;;;;4919142;28;20123;-54
2024/01/06 03:10:26;;;;;;;8.73;6.28;;;-1.30;99.90;;;;;;4937703;28;20041;-60
2024/01/06 03:12:51;;;;;;;8.90;6.28;;;-1.30;99.90;;;;;;4957820;28;20379;-52
2024/01/06 03:15:17;;;;;;;8.88;6.07;;;-1.30;99.90;;;;;;4966001;28;20028;-52
2024/01/06 03:17:43;;;;;;;9.85;6.90;;;-1.30;99.90;;;;;;4903942;28;20022;-54
2024/01/06 03:20:09;;;;;;;7.80;6.00;;;-1.40;99.90;;;;;;4939161;28;20033;-55
2024/01/06 03:22:34;;;;;;;6.95;5.75;;;-1.40;99.90;;;;;;4917319;28;20033;-55
2024/01/06 03:25:00;;;;;;;8.10;5.88;;;-1.40;99.90;;;;;;4961831;28;21558;-56
2024/01/06 03:27:25;;;;;;;8.13;5.88;;;-1.40;99.90;;;;;;4957847;28;20036;-57
2024/01/06 03:29:51;;;;;;;8.50;6.03;;;-1.40;99.90;;;;;;4937790;28;20026;-56
2024/01/06 03:32:17;;;;;;;8.88;6.05;;;-1.40;99.90;;;;;;4940495;28;20478;-54
2024/01/06 03:34:42;;;;;;;11.90;6.32;;;-1.40;99.90;;;;;;4913221;28;20022;-55
2024/01/06 03:37:08;;;;;;;10.23;6.55;;;-1.40;99.90;;;;;;4960505;28;20021;-55
2024/01/06 03:39:33;;;;;;;8.65;5.90;;;-1.40;99.90;;;;;;4961932;28;20038;-56
2024/01/06 03:42:00;;;;;;;8.30;5.90;;;-1.40;99.90;;;;;;4916774;28;20089;-60
2024/01/06 03:44:30;;;;;;;11.13;6.28;;;-1.40;99.90;;;;;;4927576;28;20034;-57
2024/01/06 03:46:56;;;;;;;9.65;6.05;;;-1.40;99.90;;;;;;4908548;28;20021;-55
2024/01/06 03:49:22;;;;;;;10.13;5.95;;;-1.40;99.90;;;;;;4937058;28;20065;-61
2024/01/06 03:51:48;;;;;;;9.75;6.13;;;-1.40;99.90;;;;;;4928270;28;20135;-54
2024/01/06 03:54:13;;;;;;;12.13;6.80;;;-1.40;99.90;;;;;;4962218;28;20053;-53
2024/01/06 03:56:39;;;;;;;8.90;6.20;;;-1.40;99.90;;;;;;4930151;28;20064;-54
2024/01/06 03:59:04;;;;;;;8.70;5.72;;;-1.40;99.90;;;;;;4901011;28;20022;-60
2024/01/06 04:01:34;;;;;;;12.02;6.32;;;-1.40;99.90;;;;;;4915758;28;20422;-60
2024/01/06 04:04:00;;;;;;;8.38;6.10;;;-1.40;99.90;;;;;;4939712;28;22107;-56
2024/01/06 04:06:26;;;;;;;10.98;6.55;;;-1.40;99.90;;;;;;4946653;28;20497;-52
2024/01/06 04:08:54;;;;;;;7.32;5.50;;;-1.40;99.90;;;;;;4903327;28;20029;-53
2024/01/06 04:11:20;;;;;;;10.35;5.93;;;-1.40;99.90;;;;;;4884307;28;20053;-55
2024/01/06 04:13:46;;;;;;;8.55;5.75;;;-1.40;99.90;;;;;;4899545;28;21152;-54
2024/01/06 04:16:11;;;;;;;8.20;5.93;;;-1.40;99.90;;;;;;4942355;28;20032;-51
2024/01/06 04:18:37;;;;;;;11.65;7.10;;;-1.40;99.90;;;;;;4928926;28;20017;-61
2024/01/06 04:21:03;;;;;;;9.63;5.75;;;-1.40;99.90;;;;;;4913301;28;20679;-57
2024/01/06 04:23:28;;;;;;;9.55;6.63;;;-1.40;99.90;;;;;;4906185;28;20393;-54
2024/01/06 04:25:54;;;;;;;9.10;5.82;;;-1.40;99.90;;;;;;4899342;28;20045;-54
2024/01/06 04:28:20;;;;;;;8.90;6.00;;;-1.40;99.90;;;;;;4945236;28;20033;-62
2024/01/06 04:30:45;;;;;;;10.35;6.53;;;-1.40;99.90;;;;;;4907123;28;20040;-61
2024/01/06 04:33:11;;;;;;;10.35;6.32;;;-1.40;99.90;;;;;;4948169;28;20021;-51
2024/01/06 04:35:37;;;;;;;9.50;6.50;;;-1.40;99.90;;;;;;4901629;28;20091;-56
2024/01/06 04:38:02;;;;;;;9.00;5.80;;;-1.40;99.90;;;;;;4894467;28;20028;-57
2024/01/06 04:40:28;;;;;;;9.13;5.75;;;-1.40;99.90;;;;;;4903515;28;20028;-60
2024/01/06 04:42:53;;;;;;;10.45;7.07;;;-1.40;99.90;;;;;;4948457;28;20660;-54
2024/01/06 04:45:19;;;;;;;8.98;5.78;;;-1.40;99.90;;;;;;4937142;28;22487;-53
2024/01/06 04:47:45;;;;;;;9.70;6.72;;;-1.40;99.90;;;;;;4897622;28;20026;-53
2024/01/06 04:50:10;;;;;;;10.65;6.32;;;-1.40;99.90;;;;;;4896934;28;20120;-55
2024/01/06 04:52:36;;;;;;;8.90;6.07;;;-1.40;99.90;;;;;;4884561;28;20029;-58
2024/01/06 04:55:02;;;;;;;8.15;5.07;;;-1.40;99.90;;;;;;4938089;28;20026;-54
2024/01/06 04:57:28;;;;;;;9.25;6.32;;;-1.40;99.90;;;;;;4944088;28;20541;-54
2024/01/06 04:59:53;;;;;;;8.48;5.88;;;-1.40;99.90;;;;;;4899228;28;20029;-51
2024/01/06 05:02:19;;;;;;;8.00;6.43;;;-1.40;99.90;;;;;;4883252;28;20048;-55
2024/01/06 05:04:44;;;;;;;7.53;6.03;;;-1.40;99.90;;;;;;4874610;28;21203;-57
2024/01/06 05:07:10;;;;;;;8.68;6.63;;;-1.40;99.90;;;;;;4936249;28;20037;-52
2024/01/06 05:09:36;;;;;;;8.85;6.22;;;-1.40;99.90;;;;;;4943974;28;20529;-58
2024/01/06 05:12:01;;;;;;;11.35;6.75;;;-1.40;99.90;;;;;;4885491;28;20044;-61
2024/01/06 05:14:27;;;;;;;11.02;6.93;;;-1.40;99.90;;;;;;4892018;28;20536;-53
2024/01/06 05:16:52;;;;;;;9.10;6.20;;;-1.40;99.90;;;;;;4872833;28;22138;-52
2024/01/06 05:19:20;;;;;;;9.02;5.97;;;-1.40;99.90;;;;;;4936669;28;20022;-53
2024/01/06 05:21:47;;;;;;;8.65;6.18;;;-1.40;99.90;;;;;;4898387;28;20041;-60
2024/01/06 05:24:12;;;;;;;9.45;6.57;;;-1.40;99.90;;;;;;4931546;22;20049;-64
2024/01/06 05:26:38;;;;;;;13.00;7.22;;;-1.40;99.90;;;;;;4876425;28;20033;-63
2024/01/06 05:29:03;;;;;;;10.40;7.20;;;-1.40;99.90;;;;;;4851896;28;20026;-64
2024/01/06 05:31:29;;;;;;;8.25;5.75;;;-1.40;99.90;;;;;;4922030;28;20042;-63
2024/01/06 05:33:54;;;;;;;12.27;8.02;;;-1.40;99.90;;;;;;4910927;28;22536;-63
2024/01/06 05:36:20;;;;;;;12.13;7.55;;;-1.40;99.90;;;;;;4965911;28;22285;-61
2024/01/06 05:38:45;;;;;;;9.38;7.18;;;-1.40;99.90;;;;;;4935577;28;20505;-64
2024/01/06 05:41:11;;;;;;;10.35;7.07;;;-1.40;99.90;;;;;;4912443;28;20037;-63
2024/01/06 05:43:37;;;;;;;9.48;6.85;;;-1.40;99.90;;;;;;4902937;28;20025;-64
2024/01/06 05:46:02;;;;;;;10.38;7.03;;;-1.40;99.90;;;;;;4914515;28;21451;-64
2024/01/06 05:48:28;;;;;;;9.70;7.15;;;-1.50;99.90;;;;;;4963110;28;20050;-64
2024/01/06 05:50:54;;;;;;;13.20;6.93;;;-1.40;99.90;;;;;;4931607;28;20022;-64
2024/01/06 05:53:20;;;;;;;9.10;7.40;;;-1.40;99.90;;;;;;4914454;28;20038;-64
2024/01/06 05:55:45;;;;;;;8.80;6.82;;;-1.40;99.90;;;;;;4921717;28;20028;-63
2024/01/06 05:58:11;;;;;;;9.63;6.50;;;-1.50;99.90;;;;;;4914903;28;20022;-63
2024/01/06 06:00:37;;;;;;;9.23;6.93;;;-1.40;99.90;;;;;;4959063;28;20442;-64
2024/01/06 06:03:02;;;;;;;11.75;7.30;;;-1.40;99.90;;;;;;4920450;28;20925;-63
2024/01/06 06:05:28;;;;;;;12.63;7.90;;;-1.40;99.90;;;;;;4915701;28;20030;-63
2024/01/06 06:07:54;;;;;;;10.73;7.35;;;-1.50;99.90;;;;;;4918203;28;20529;-63
2024/01/06 06:10:20;;;;;;;11.43;7.43;;;-1.50;99.90;;;;;;4970976;28;20405;-63
2024/01/06 06:12:46;;;;;;;9.30;6.82;;;-1.50;99.90;;;;;;4967383;28;20030;-63
2024/01/06 06:15:11;;;;;;;9.95;7.35;;;-1.50;99.90;;;;;;4970563;28;20641;-63
2024/01/06 06:17:37;;;;;;;11.70;7.70;;;-1.50;99.90;;;;;;4980875;28;20092;-62
2024/01/06 06:20:03;;;;;;;9.90;7.60;;;-1.50;99.90;;;;;;4977238;28;20027;-64
2024/01/06 06:22:31;;;;;;;8.98;6.60;;;-1.50;99.90;;;;;;4984214;28;20037;-63
2024/01/06 06:24:58;;;;;;;12.98;7.80;;;-1.50;99.90;;;;;;4949075;28;20044;-64
2024/01/06 06:27:24;;;;;;;12.02;7.78;;;-1.50;99.90;;;;;;4939054;28;21884;-63
2024/01/06 06:29:49;;;;;;;9.45;6.97;;;-1.50;99.90;;;;;;4970764;28;20113;-63
2024/01/06 06:32:15;;;;;;;14.32;8.25;;;-1.50;99.90;;;;;;4979684;28;20459;-63
2024/01/06 06:34:41;;;;;;;11.20;7.72;;;-1.50;99.90;;;;;;4974965;28;21196;-63
2024/01/06 06:37:07;;;;;;;13.25;8.40;;;-1.50;99.90;;;;;;4962268;28;20084;-63
2024/01/06 06:39:35;;;;;;;12.80;7.30;;;-1.50;99.90;;;;;;4969894;28;20030;-60
2024/01/06 06:42:01;;;;;;;9.50;6.28;;;-1.50;99.90;;;;;;4959580;28;20581;-64
2024/01/06 06:44:26;;;;;;;12.48;7.63;;;-1.40;99.90;;;;;;4963569;28;20030;-63
2024/01/06 06:46:52;;;;;;;12.35;8.35;;;-1.50;99.90;;;;;;4967665;28;20088;-64
2024/01/06 06:49:18;;;;;;;15.10;8.27;;;-1.40;99.90;;;;;;4969225;28;20161;-63
2024/01/06 06:51:47;;;;;;;12.30;8.20;;;-1.40;99.90;;;;;;4923044;28;20034;-64
2024/01/06 06:54:14;;;;;;;12.63;8.13;;;-1.40;99.90;;;;;;4960975;28;20032;-63
2024/01/06 06:56:40;;;;;;;10.65;7.25;;;-1.40;99.90;;;;;;4967412;28;21405;-64
2024/01/06 06:59:05;;;;;;;12.13;8.25;;;-1.40;99.90;;;;;;4980012;28;20084;-63
2024/01/06 07:01:31;;;;;;;14.88;8.52;;;-1.50;99.90;;;;;;4961411;28;20033;-63
2024/01/06 07:03:57;;;;;;;11.50;8.05;;;-1.50;99.90;;;;;;4927172;28;20021;-61
2024/01/06 07:06:22;;;;;;;13.05;7.82;;;-1.50;99.90;;;;;;4946066;28;20669;-60
2024/01/06 07:08:48;;;;;;;13.02;7.45;;;-1.50;99.90;;;;;;4966666;28;20033;-63
2024/01/06 07:11:15;;;;;;;11.85;7.43;;;-1.50;99.90;;;;;;4964620;28;20040;-59
2024/01/06 07:13:40;;;;;;;10.00;7.30;;;-1.50;99.90;;;;;;4953532;28;20022;-63
2024/01/06 07:16:07;;;;;;;13.45;8.13;;;-1.50;99.90;;;;;;4946874;28;20025;-63
2024/01/06 07:18:32;;;;;;;12.30;7.80;;;-1.50;99.90;;;;;;4957193;28;20053;-62
2024/01/06 07:20:58;;;;;;;10.85;7.72;;;-1.50;99.90;;;;;;4966931;28;20030;-63
2024/01/06 07:23:24;;;;;;;11.70;7.97;;;-1.50;99.90;;;;;;4950965;28;20169;-64
2024/01/06 07:25:49;;;;;;;12.68;7.85;;;-1.50;99.90;;;;;;4950587;28;20065;-59
2024/01/06 07:28:15;;;;;;;13.35;7.65;;;-1.50;99.90;;;;;;4973098;28;20077;-63
2024/01/06 07:30:41;;;;;;;10.48;7.22;;;-1.50;99.90;;;;;;4948112;28;20037;-63
2024/01/06 07:33:06;;;;;;;9.48;7.22;;;-1.50;99.90;;;;;;4942909;28;20026;-63
2024/01/06 07:35:32;;;;;;;12.65;7.50;;;-1.50;99.90;;;;;;4964082;28;20052;-62
2024/01/06 07:37:57;;;;;;;11.95;7.53;;;-1.50;99.90;;;;;;4973111;28;21822;-62
2024/01/06 07:40:25;;;;;;;9.23;7.15;;;-1.50;99.90;;;;;;4949801;28;20514;-63
2024/01/06 07:42:51;;;;;;;9.65;7.10;;;-1.50;99.90;;;;;;4941677;28;20018;-64
2024/01/06 07:45:17;;;;;;;11.57;7.65;;;-1.50;99.90;;;;;;4936049;28;20081;-63
2024/01/06 07:47:42;;;;;;;14.18;7.05;;;-1.50;99.90;;;;;;4956002;28;21162;-63
2024/01/06 07:50:09;;;;;;;11.07;7.30;;;-1.50;99.90;;;;;;4976199;28;20124;-63
2024/01/06 07:52:34;;;;;;;12.98;7.75;;;-1.50;99.90;;;;;;4927958;28;20022;-63
2024/01/06 07:55:00;;;;;;;10.95;7.53;;;-1.50;99.90;;;;;;4946399;28;20037;-63
2024/01/06 07:57:25;;;;;;;10.90;7.57;;;-1.50;99.90;;;;;;4941013;28;20478;-63
2024/01/06 07:59:51;;;;;;;10.23;6.63;;;-1.50;99.90;;;;;;4955778;28;20018;-63
2024/01/06 08:02:17;;;;;;;10.18;6.43;;;-1.50;99.90;;;;;;4975292;28;20109;-63
2024/01/06 08:04:42;;;;;;;9.73;7.20;;;-1.50;99.90;;;;;;4934812;28;20075;-63
2024/01/06 08:07:08;;;;;;;10.50;6.90;;;-1.50;99.90;;;;;;4965280;28;20030;-63
2024/01/06 08:09:34;;;;;;;10.20;7.60;;;-1.50;99.90;;;;;;4930348;28;20029;-62
2024/01/06 08:11:59;;;;;;;9.88;6.45;;;-1.50;99.90;;;;;;4951807;28;20530;-64
2024/01/06 08:14:25;;;;;;;11.75;7.45;;;-1.50;99.90;;;;;;4913243;28;20052;-62
2024/01/06 08:16:50;;;;;;;11.32;6.30;;;-1.50;99.90;;;;;;4969264;28;20072;-61
2024/01/06 08:19:16;;;;;;;9.95;6.22;;;-1.40;99.90;;;;;;4949046;28;20023;-61
2024/01/06 08:21:41;;;;;;;12.75;7.32;;;-1.50;99.90;;;;;;4937060;28;20035;-63
2024/01/06 08:24:07;;;;;;;14.38;7.57;;;-1.40;99.90;;;;;;4917314;28;20528;-63
2024/01/06 08:26:33;;;;;;;11.18;7.20;;;-1.40;99.90;;;;;;4949900;28;20053;-63
2024/01/06 08:28:59;;;;;;;9.68;6.45;;;-1.40;99.90;;;;;;4953660;28;22604;-63
2024/01/06 08:31:24;;;;;;;11.45;7.05;;;-1.40;99.90;;;;;;4967034;28;20072;-63
2024/01/06 08:33:50;;;;;;;9.10;6.50;;;-1.40;99.90;;;;;;4920318;28;20026;-64
2024/01/06 08:36:15;;;;;;;11.07;6.90;;;-1.40;99.90;;;;;;4918654;28;20069;-62
2024/01/06 08:38:41;;;;;;;12.90;7.85;;;-1.40;99.90;;;;;;4942637;28;21480;-61
2024/01/06 08:41:07;;;;;;;10.90;6.72;;;-1.40;99.90;;;;;;4970682;28;20022;-62
2024/01/06 08:43:33;;;;;;;12.93;7.28;;;-1.40;99.90;;;;;;4937999;28;20517;-62
2024/01/06 08:45:59;;;;;;;13.07;7.65;;;-1.40;99.90;;;;;;4904359;28;20029;-60
2024/01/06 08:48:24;;;;;;;11.07;7.50;;;-1.30;99.90;;;;;;4901445;28;20666;-63
2024/01/06 08:50:50;;;;;;;11.88;6.75;;;-1.40;99.90;;;;;;4940492;28;20085;-64
2024/01/06 08:53:16;;;;;;;13.82;7.10;;;-1.30;99.90;;;;;;4964962;28;20116;-63
2024/01/06 08:55:42;;;;;;;12.30;6.53;;;-1.30;99.90;;;;;;4935040;28;20038;-64
2024/01/06 08:58:07;;;;;;;10.38;6.20;;;-1.30;99.90;;;;;;4940038;28;20038;-62
2024/01/06 09:00:33;;;;;;;9.57;6.55;;;-1.30;99.90;;;;;;4916056;28;20112;-63
2024/01/06 09:02:59;;;;;;;11.43;7.07;;;-1.30;99.90;;;;;;4934157;28;20477;-61
2024/01/06 09:05:25;;;;;;;9.30;6.38;;;-1.30;99.90;;;;;;4915161;28;20038;-64
2024/01/06 09:07:50;;;;;;;8.57;6.47;;;-1.40;99.90;;;;;;4955983;28;20513;-63
2024/01/06 09:10:17;;;;;;;9.23;6.65;;;-1.30;99.90;;;;;;4950718;28;20170;-63
2024/01/06 09:12:43;;;;;;;10.70;6.90;;;-1.30;99.90;;;;;;4931549;28;20034;-63
2024/01/06 09:15:09;;;;;;;10.35;6.72;;;-1.30;99.90;;;;;;4927318;28;20081;-63
2024/01/06 09:17:34;;;;;;;10.20;6.40;;;-1.30;99.90;;;;;;4931650;28;20525;-63
2024/01/06 09:20:01;;;;;;;10.40;6.97;;;-1.30;99.90;;;;;;4948053;28;21606;-62
2024/01/06 09:22:26;;;;;;;10.80;6.03;;;-1.30;99.90;;;;;;4916466;28;20042;-62
2024/01/06 09:24:52;;;;;;;12.38;6.60;;;-1.30;99.90;;;;;;4912301;28;20584;-62
2024/01/06 09:27:18;;;;;;;11.68;6.32;;;-1.30;99.90;;;;;;4898798;28;20674;-62
2024/01/06 09:29:44;;;;;;;10.90;6.65;;;-1.30;99.90;;;;;;4929813;28;21448;-62
2024/01/06 09:32:09;;;;;;;9.52;6.72;;;-1.30;99.90;;;;;;4928552;28;20046;-62
2024/01/06 09:34:35;;;;;;;12.30;7.93;;;-1.20;99.90;;;;;;4939081;28;20152;-61
2024/01/06 09:37:00;;;;;;;8.68;6.65;;;-1.20;99.90;;;;;;4896475;28;20513;-63
2024/01/06 09:39:26;;;;;;;10.10;7.18;;;-1.30;99.90;;;;;;4912511;28;20049;-62
2024/01/06 09:41:51;;;;;;;10.90;6.95;;;-1.20;99.90;;;;;;4927945;28;20060;-61
2024/01/06 09:44:18;;;;;;;10.77;6.93;;;-1.20;99.90;;;;;;4936031;28;20083;-62
2024/01/06 09:46:44;;;;;;;12.80;7.45;;;-1.20;99.90;;;;;;4904491;28;20071;-63
2024/01/06 09:49:10;;;;;;;10.77;7.15;;;-1.20;99.90;;;;;;4928437;28;20136;-61
2024/01/06 09:51:39;;;;;;;12.90;7.00;;;-1.20;99.90;;;;;;4881570;28;20117;-63
2024/01/06 09:54:09;;;;;;;8.50;6.47;;;-1.20;99.90;;;;;;4916103;28;20414;-63
2024/01/06 09:56:35;;;;;;;10.93;6.93;;;-1.20;99.90;;;;;;4924238;28;20021;-61
2024/01/06 09:59:01;;;;;;;12.07;7.38;;;-1.20;99.90;;;;;;4925771;28;22160;-61
2024/01/06 10:01:27;;;;;;;10.60;7.05;;;-1.20;99.90;;;;;;4923871;28;20111;-62
2024/01/06 10:03:53;;;;;;;9.07;6.25;;;-1.10;99.90;;;;;;4902522;28;20304;-63
2024/01/06 10:06:20;;;;;;;11.38;6.82;;;-1.10;99.90;;;;;;4913922;28;20041;-61
2024/01/06 10:08:50;;;;;;;12.30;7.35;;;-1.10;99.90;;;;;;4919905;28;21459;-63
2024/01/06 10:11:16;;;;;;;14.25;7.15;;;-1.10;99.90;;;;;;4928746;28;20026;-62
2024/01/06 10:13:41;;;;;;;10.05;7.25;;;-1.10;99.90;;;;;;4916410;28;20057;-62
2024/01/06 10:16:07;;;;;;;9.15;7.15;;;-1.00;99.90;;;;;;4922857;28;20034;-61
2024/01/06 10:18:35;;;;;;;7.88;6.00;;;-1.00;99.90;;;;;;4897719;28;20131;-61
2024/01/06 10:21:05;;;;;;;9.40;7.05;;;-1.00;99.90;;;;;;4915390;28;20030;-63
2024/01/06 10:23:32;;;;;;;10.55;7.18;;;-1.00;99.90;;;;;;4914911;28;20063;-63
2024/01/06 10:25:57;;;;;;;8.75;6.45;;;-1.00;99.90;;;;;;4947753;28;21684;-62
2024/01/06 10:28:23;;;;;;;11.65;6.25;;;-1.00;99.90;;;;;;4929256;28;20144;-62
2024/01/06 10:30:52;;;;;;;8.18;4.82;;;-1.00;99.90;;;;;;4904153;28;20080;-63
2024/01/06 10:33:19;;;;;;;12.82;6.82;;;-1.00;99.90;;;;;;4910940;28;20023;-63
2024/01/06 10:35:44;;;;;;;9.05;6.43;;;-1.00;99.90;;;;;;4909415;28;20026;-61
2024/01/06 10:38:11;;;;;;;10.40;6.68;;;-1.00;99.90;;;;;;4952745;28;20046;-63
2024/01/06 10:40:37;;;;;;;10.10;6.70;;;-1.00;99.90;;;;;;4946038;28;20033;-63
2024/01/06 10:43:03;;;;;;;10.63;6.60;;;-1.00;99.90;;;;;;4914634;28;20433;-63
2024/01/06 10:45:32;;;;;;;8.07;5.65;;;-1.00;99.90;;;;;;4903561;28;20033;-63
2024/01/06 10:47:59;;;;;;;12.35;6.93;;;-1.00;99.90;;;;;;4906741;28;20068;-63
2024/01/06 10:50:28;;;;;;;9.55;6.03;;;-0.90;99.90;;;;;;4924591;28;20026;-63
2024/01/06 10:52:56;;;;;;;8.00;5.20;;;-0.90;99.90;;;;;;4927482;28;20030;-59
2024/01/06 10:55:22;;;;;;;6.95;5.18;;;-1.00;99.90;;;;;;4941900;28;20048;-63
2024/01/06 10:57:50;;;;;;;11.93;6.45;;;-0.90;99.90;;;;;;4907980;28;20132;-63
2024/01/06 11:00:16;;;;;;;8.43;5.35;;;-0.90;99.90;;;;;;4892737;28;20022;-61
2024/01/06 11:02:42;;;;;;;6.97;5.43;;;-0.90;99.90;;;;;;4894965;28;21424;-61
2024/01/06 11:05:10;;;;;;;7.32;5.15;;;-0.90;99.90;;;;;;4942404;28;20695;-62
2024/01/06 11:07:37;;;;;;;9.32;5.88;;;-1.00;99.90;;;;;;4939032;28;20439;-62
2024/01/06 11:10:16;;;;;;;8.73;4.90;;;-1.00;99.90;;;;;;4888033;28;20033;-63
2024/01/06 11:12:42;;;;;;;9.70;5.72;;;-0.90;99.90;;;;;;4900827;28;20438;-63
2024/01/06 11:15:08;;;;;;;8.00;4.75;;;-0.90;99.90;;;;;;4886669;28;20034;-62
2024/01/06 11:17:53;;;;;;;7.63;5.60;;;-0.90;99.90;;;;;;4897617;28;20030;-63
2024/01/06 11:20:23;;;;;;;7.93;4.32;;;-1.00;99.90;;;;;;4942458;28;20026;-62
2024/01/06 11:22:49;;;;;;;6.85;4.13;;;-0.90;99.90;;;;;;4907075;28;20045;-63
2024/01/06 11:25:18;;;;;;;7.85;4.93;;;-0.90;99.90;;;;;;4933810;28;20034;-63
2024/01/06 11:27:45;;;;;;;8.18;4.75;;;-0.90;99.90;;;;;;4892790;28;20034;-62
2024/01/06 11:30:32;;;;;;;7.30;4.75;;;-1.00;99.90;;;;;;4883497;28;20036;-62
2024/01/06 11:33:00;;;;;;;6.72;4.18;;;-1.00;99.90;;;;;;4881529;28;20180;-61
2024/01/06 11:35:27;;;;;;;6.13;3.97;;;-1.00;99.90;;;;;;4907776;28;20068;-64
2024/01/06 11:38:00;;;;;;;6.47;4.03;;;-1.00;99.90;;;;;;4929057;28;20058;-63
2024/01/06 11:40:32;;;;;;;9.05;4.60;;;-1.00;99.90;;;;;;4933977;28;20031;-63
2024/01/06 11:43:09;;;;;;;6.60;4.25;;;-1.00;99.90;;;;;;4893733;28;20125;-62
2024/01/06 11:45:36;;;;;;;7.95;4.47;;;-1.10;99.90;;;;;;4892095;28;20037;-62
2024/01/06 11:48:04;;;;;;;4.45;3.45;;;-1.10;99.90;;;;;;4878785;28;20517;-63
2024/01/06 11:50:34;;;;;;;5.50;3.10;;;-1.00;99.90;;;;;;4888768;28;20742;-63
2024/01/06 11:53:00;;;;;;;5.50;3.78;;;-1.00;99.90;;;;;;4925328;28;21599;-63
2024/01/06 11:55:31;;;;;;;5.45;3.70;;;-1.00;99.90;;;;;;4910787;28;20188;-62
2024/01/06 11:58:01;;;;;;;4.38;3.38;;;-1.10;99.90;;;;;;4891797;28;20053;-60
2024/01/06 12:00:27;;;;;;;5.75;3.22;;;-1.10;99.90;;;;;;4884171;28;20490;-62
2024/01/06 12:02:57;;;;;;;4.90;3.38;;;-1.10;99.90;;;;;;4882571;28;20065;-62
2024/01/06 12:05:24;;;;;;;5.88;3.60;;;-1.10;99.90;;;;;;4912986;28;20072;-63
2024/01/06 12:08:08;;;;;;;5.68;3.47;;;-1.10;99.90;;;;;;4914869;28;20042;-63
2024/01/06 12:10:34;;;;;;;2.72;2.38;;;-1.10;99.90;;;;;;4903086;28;20053;-62
2024/01/06 12:13:04;;;;;;;5.28;3.00;;;-1.10;99.90;;;;;;4885752;28;20038;-63
2024/01/06 12:15:31;;;;;;;3.97;2.95;;;-1.10;99.90;;;;;;4888697;28;20718;-63
2024/01/06 12:17:57;;;;;;;5.63;3.45;;;-1.10;99.90;;;;;;4887099;28;20057;-63
2024/01/06 12:20:25;;;;;;;5.97;3.13;;;-1.10;99.90;;;;;;4923615;28;20042;-64
2024/01/06 12:22:55;;;;;;;4.57;3.30;;;-1.10;99.90;;;;;;4907980;28;20033;-63
2024/01/06 12:25:25;;;;;;;5.13;3.58;;;-1.10;99.90;;;;;;4927588;28;21066;-63
2024/01/06 12:27:53;;;;;;;5.85;3.20;;;-1.10;99.90;;;;;;4888017;28;20030;-63
2024/01/06 12:30:19;;;;;;;6.60;3.42;;;-1.10;99.90;;;;;;4880779;28;20052;-63
2024/01/06 12:32:48;;;;;;;6.07;3.75;;;-1.10;99.90;;;;;;4885263;28;20088;-62
2024/01/06 12:35:14;;;;;;;6.65;3.75;;;-1.10;99.90;;;;;;4945524;28;20029;-63
2024/01/06 12:37:42;;;;;;;4.75;3.38;;;-1.10;99.90;;;;;;4906720;28;20046;-63